createdAt,value
2018-06-21T05:01:53.415Z,22.22
2018-06-21T05:06:56.752Z,22.38
2018-06-21T05:12:00.089Z,22.55
2018-06-21T05:17:03.421Z,22.60
2018-06-21T05:22:06.770Z,22.63
2018-06-21T05:27:10.106Z,22.76
2018-06-21T05:32:13.435Z,22.79
2018-06-21T05:37:16.775Z,22.92
2018-06-21T05:42:20.106Z,23.09
2018-06-21T05:47:23.438Z,23.21
2018-06-21T05:52:26.779Z,23.33
2018-06-21T05:57:30.101Z,23.43
2018-06-21T06:02:33.434Z,23.56
2018-06-21T06:07:37.527Z,23.77
2018-06-21T06:12:40.870Z,23.91
2018-06-21T06:17:44.968Z,24.05
2018-06-21T06:22:48.335Z,24.16
2018-06-21T06:27:51.666Z,24.31
2018-06-21T06:32:54.994Z,24.50
2018-06-21T06:37:58.322Z,24.63
2018-06-21T06:43:01.660Z,24.71
2018-06-21T06:48:05.774Z,24.86
2018-06-21T06:53:09.107Z,24.97
2018-06-21T06:58:12.435Z,25.10
2018-06-21T07:03:15.770Z,25.17
2018-06-21T07:08:19.110Z,25.06
2018-06-21T07:13:22.715Z,25.05
2018-06-21T07:18:26.075Z,25.20
2018-06-21T07:23:30.182Z,25.30
2018-06-21T07:28:33.594Z,25.32
2018-06-21T07:33:37.116Z,25.49
2018-06-21T07:38:40.459Z,25.54
2018-06-21T07:43:43.816Z,25.40
2018-06-21T07:48:47.164Z,25.60
2018-06-21T07:53:51.581Z,25.98
2018-06-21T07:58:54.936Z,26.02
2018-06-21T08:03:58.279Z,25.96
2018-06-21T08:09:01.607Z,25.88
2018-06-21T08:14:04.942Z,26.23
2018-06-21T08:19:08.274Z,26.56
2018-06-21T08:24:12.362Z,26.31
2018-06-21T08:29:15.702Z,26.22
2018-06-21T08:34:19.050Z,26.47
2018-06-21T08:39:22.370Z,26.53
2018-06-21T08:44:25.698Z,26.76
2018-06-21T08:49:29.027Z,26.54
2018-06-21T08:54:32.368Z,27.01
2018-06-21T08:59:35.718Z,26.59
2018-06-21T09:04:39.068Z,26.50
2018-06-21T09:09:42.393Z,26.84
2018-06-21T09:14:45.726Z,26.51
2018-06-21T09:19:49.831Z,26.66
2018-06-21T09:24:53.168Z,26.96
2018-06-21T09:29:56.494Z,26.93
2018-06-21T09:35:00.671Z,26.93
2018-06-21T09:45:33.866Z,27.30
2018-06-21T09:50:37.966Z,27.71
2018-06-21T09:55:41.293Z,27.42
2018-06-21T10:00:44.626Z,27.10
2018-06-21T10:05:48.711Z,27.11
2018-06-21T10:10:52.057Z,27.49
2018-06-21T10:15:56.146Z,27.56
2018-06-21T10:20:59.489Z,27.40
2018-06-21T10:26:02.819Z,27.50
2018-06-21T10:31:06.917Z,27.31
2018-06-21T10:36:10.238Z,27.50
2018-06-21T10:41:13.561Z,27.37
2018-06-21T10:46:16.994Z,27.46
2018-06-21T10:51:21.102Z,27.88
2018-06-21T10:56:24.442Z,27.92
2018-06-21T11:01:28.533Z,28.21
2018-06-21T11:06:31.865Z,28.27
2018-06-21T11:11:35.183Z,28.47
2018-06-21T11:16:39.270Z,28.62
2018-06-21T11:21:42.604Z,28.18
2018-06-21T11:26:45.947Z,28.60
2018-06-21T11:31:50.031Z,28.67
2018-06-21T11:36:53.361Z,29.02
2018-06-21T11:41:56.690Z,29.09
2018-06-21T11:47:00.783Z,29.23
2018-06-21T11:52:04.123Z,29.06
2018-06-21T11:57:07.457Z,28.16
2018-06-21T12:02:10.815Z,27.62
2018-06-21T12:07:14.143Z,27.51
2018-06-21T12:12:17.480Z,27.55
2018-06-21T12:17:21.575Z,27.06
2018-06-21T12:22:24.919Z,26.54
2018-06-21T12:27:28.251Z,26.43
2018-06-21T12:32:32.360Z,26.64
2018-06-21T12:37:35.694Z,26.28
2018-06-21T12:42:39.780Z,26.48
2018-06-21T12:47:43.131Z,27.41
2018-06-21T12:52:47.228Z,27.86
2018-06-21T12:57:50.558Z,28.31
2018-06-21T13:02:53.895Z,28.39
2018-06-21T13:07:57.990Z,28.28
2018-06-21T13:13:16.967Z,28.55
2018-06-21T13:18:20.307Z,28.37
2018-06-21T13:23:24.397Z,28.60
2018-06-21T13:28:27.718Z,28.28
2018-06-21T13:33:31.047Z,27.30
2018-06-21T13:38:34.379Z,26.61
2018-06-21T13:43:38.470Z,25.98
2018-06-21T13:48:41.787Z,25.59
2018-06-21T13:53:45.112Z,25.68
2018-06-21T13:58:48.441Z,25.97
2018-06-21T14:03:52.539Z,25.84
2018-06-21T14:08:55.879Z,26.36
2018-06-21T14:13:59.977Z,27.12
2018-06-21T14:19:03.306Z,27.57
2018-06-21T14:24:06.719Z,28.10
2018-06-21T14:29:10.063Z,28.62
2018-06-21T14:34:13.395Z,27.61
2018-06-21T14:39:16.727Z,27.48
2018-06-21T14:44:20.064Z,26.89
2018-06-21T14:49:23.398Z,26.46
2018-06-21T14:54:27.487Z,26.43
2018-06-21T14:59:30.817Z,26.30
2018-06-21T15:04:34.154Z,26.32
2018-06-21T15:09:37.475Z,26.44
2018-06-21T15:14:41.575Z,26.82
2018-06-21T15:19:44.905Z,26.90
2018-06-21T15:24:48.239Z,26.75
2018-06-21T15:29:52.335Z,26.60
2018-06-21T15:34:55.662Z,27.11
2018-06-21T15:39:59.051Z,27.16
2018-06-21T15:45:02.357Z,26.74
2018-06-21T15:50:05.682Z,26.10
2018-06-21T15:55:09.011Z,25.76
2018-06-21T16:00:12.338Z,25.85
2018-06-21T16:05:16.447Z,25.72
2018-06-21T16:10:20.463Z,26.23
2018-06-21T16:15:23.798Z,26.38
2018-06-21T16:20:28.830Z,26.47
2018-06-21T16:25:32.164Z,25.99
2018-06-21T16:30:35.501Z,25.79
2018-06-21T16:35:38.834Z,25.82
2018-06-21T16:40:42.164Z,25.71
2018-06-21T16:45:45.495Z,25.77
2018-06-21T16:50:48.825Z,25.89
2018-06-21T16:55:52.166Z,25.77
2018-06-21T17:00:55.503Z,26.28
2018-06-21T17:05:58.844Z,26.25
2018-06-21T17:11:02.189Z,26.47
2018-06-21T17:16:06.283Z,25.98
2018-06-21T17:21:09.603Z,25.33
2018-06-21T17:26:12.948Z,25.20
2018-06-21T17:31:17.347Z,25.11
2018-06-21T17:36:20.684Z,25.14
2018-06-21T17:41:24.032Z,25.21
2018-06-21T17:46:28.129Z,25.25
2018-06-21T17:51:31.480Z,25.34
2018-06-21T17:56:35.752Z,25.28
2018-06-21T18:01:39.107Z,25.05
2018-06-21T18:06:43.507Z,24.98
2018-06-21T18:11:46.868Z,24.76
2018-06-21T18:16:50.218Z,24.30
2018-06-21T18:21:53.572Z,23.79
2018-06-21T18:26:57.059Z,23.77
2018-06-21T18:32:00.426Z,23.65
2018-06-21T18:37:04.559Z,23.50
2018-06-21T18:42:07.898Z,23.05
2018-06-21T18:47:11.463Z,22.88
2018-06-21T18:52:14.810Z,22.85
2018-06-21T18:57:18.443Z,22.93
2018-06-21T19:02:21.783Z,22.91
2018-06-21T19:07:32.719Z,22.71
2018-06-21T19:12:36.852Z,22.80
2018-06-21T19:17:40.962Z,22.41
2018-06-21T19:22:44.303Z,22.40
2018-06-21T19:27:47.811Z,22.03
2018-06-21T19:32:51.898Z,22.22
2018-06-21T19:37:55.242Z,22.00
2018-06-21T19:42:58.679Z,21.90
2018-06-21T19:48:02.133Z,21.44
2018-06-21T19:53:05.646Z,21.31
2018-06-21T19:58:08.975Z,21.28
2018-06-21T20:03:12.337Z,21.35
2018-06-21T20:08:16.434Z,21.13
2018-06-21T20:13:19.771Z,21.47
2018-06-21T20:18:23.900Z,21.39
2018-06-21T20:23:27.362Z,20.98
2018-06-21T20:28:30.682Z,21.13
2018-06-21T20:33:34.016Z,21.12
2018-06-21T20:38:37.344Z,21.03
2018-06-21T20:43:40.814Z,20.91
2018-06-21T20:48:44.147Z,20.80
2018-06-21T20:53:47.479Z,20.91
2018-06-21T20:58:50.806Z,20.79
2018-06-21T21:03:54.910Z,20.42
2018-06-21T21:08:58.247Z,20.26
2018-06-21T21:14:02.335Z,19.90
2018-06-21T21:19:05.700Z,19.78
2018-06-21T21:24:09.027Z,19.77
2018-06-21T21:29:12.362Z,19.58
2018-06-21T21:34:15.696Z,19.60
2018-06-21T21:39:19.047Z,19.48
2018-06-21T21:44:23.153Z,19.50
2018-06-21T21:49:26.634Z,19.36
2018-06-21T21:54:29.975Z,19.58
2018-06-21T21:59:33.587Z,19.40
2018-06-21T22:04:36.964Z,19.31
2018-06-21T22:09:40.298Z,19.16
2018-06-21T22:14:43.811Z,18.97
2018-06-21T22:19:47.143Z,19.06
2018-06-21T22:24:50.585Z,18.89
2018-06-21T22:29:54.686Z,18.78
